sensor_id;sensor_type;location;lat;lon;timestamp;pressure;altitude;pressure_sealevel;temperature;humidity
4836;BME280;66719;51.226;6.902;2023-09-19T00:00:16;100110.47;;;16.34;100.00
4836;BME280;66719;51.226;6.902;2023-09-19T00:02:52;100121.09;;;16.33;100.00
4836;BME280;66719;51.226;6.902;2023-09-19T00:05:20;100119.34;;;16.33;100.00
4836;BME280;66719;51.226;6.902;2023-09-19T00:07:51;100120.31;;;16.31;100.00
4836;BME280;66719;51.226;6.902;2023-09-19T00:10:25;100120.31;;;16.31;100.00
4836;BME280;66719;51.226;6.902;2023-09-19T00:12:54;100121.34;;;16.28;100.00
4836;BME280;66719;51.226;6.902;2023-09-19T00:15:26;100126.72;;;16.27;100.00
4836;BME280;66719;51.226;6.902;2023-09-19T00:17:55;100126.81;;;16.25;100.00
4836;BME280;66719;51.226;6.902;2023-09-19T00:20:22;100127.88;;;16.21;100.00
4836;BME280;66719;51.226;6.902;2023-09-19T00:22:50;100130.59;;;16.20;100.00
4836;BME280;66719;51.226;6.902;2023-09-19T00:25:19;100127.34;;;16.15;100.00
4836;BME280;66719;51.226;6.902;2023-09-19T00:27:49;100127.19;;;16.18;100.00
4836;BME280;66719;51.226;6.902;2023-09-19T00:30:18;100119.94;;;16.21;100.00
4836;BME280;66719;51.226;6.902;2023-09-19T00:32:48;100128.81;;;16.20;100.00
4836;BME280;66719;51.226;6.902;2023-09-19T00:35:16;100130.78;;;16.17;100.00
4836;BME280;66719;51.226;6.902;2023-09-19T00:37:43;100129.03;;;16.16;100.00
4836;BME280;66719;51.226;6.902;2023-09-19T00:40:10;100138.75;;;16.15;100.00
4836;BME280;66719;51.226;6.902;2023-09-19T00:42:42;100135.25;;;16.15;100.00
4836;BME280;66719;51.226;6.902;2023-09-19T00:45:10;100140.78;;;16.10;100.00
4836;BME280;66719;51.226;6.902;2023-09-19T00:47:43;100139.22;;;16.06;100.00
4836;BME280;66719;51.226;6.902;2023-09-19T00:50:11;100147.16;;;16.06;100.00
4836;BME280;66719;51.226;6.902;2023-09-19T00:52:42;100147.16;;;16.06;100.00
4836;BME280;66719;51.226;6.902;2023-09-19T00:55:10;100149.09;;;16.02;100.00
4836;BME280;66719;51.226;6.902;2023-09-19T00:57:38;100159.50;;;16.05;100.00
4836;BME280;66719;51.226;6.902;2023-09-19T01:00:06;100152.50;;;16.04;100.00
4836;BME280;66719;51.226;6.902;2023-09-19T01:02:35;100154.22;;;16.05;100.00
4836;BME280;66719;51.226;6.902;2023-09-19T01:05:02;100148.16;;;16.03;100.00
4836;BME280;66719;51.226;6.902;2023-09-19T01:07:32;100159.59;;;16.04;100.00
4836;BME280;66719;51.226;6.902;2023-09-19T01:10:02;100159.66;;;16.02;100.00
4836;BME280;66719;51.226;6.902;2023-09-19T01:19:12;100160.59;;;16.01;100.00
4836;BME280;66719;51.226;6.902;2023-09-19T01:21:27;100162.31;;;16.02;100.00
4836;BME280;66719;51.226;6.902;2023-09-19T01:29:47;100174.19;;;15.94;100.00
4836;BME280;66719;51.226;6.902;2023-09-19T01:32:19;100172.31;;;15.96;100.00
4836;BME280;66719;51.226;6.902;2023-09-19T01:34:54;100176.75;;;15.95;100.00
4836;BME280;66719;51.226;6.902;2023-09-19T01:37:24;100181.16;;;15.95;100.00
4836;BME280;66719;51.226;6.902;2023-09-19T01:42:38;100189.34;;;15.90;100.00
4836;BME280;66719;51.226;6.902;2023-09-19T01:45:13;100194.06;;;15.83;100.00
4836;BME280;66719;51.226;6.902;2023-09-19T01:47:48;100196.63;;;15.85;100.00
4836;BME280;66719;51.226;6.902;2023-09-19T01:50:23;100195.59;;;15.88;100.00
4836;BME280;66719;51.226;6.902;2023-09-19T01:52:59;100202.47;;;15.92;100.00
4836;BME280;66719;51.226;6.902;2023-09-19T01:55:43;100206.72;;;15.94;100.00
4836;BME280;66719;51.226;6.902;2023-09-19T01:58:14;100197.09;;;15.93;100.00
4836;BME280;66719;51.226;6.902;2023-09-19T02:00:44;100202.47;;;15.92;100.00
4836;BME280;66719;51.226;6.902;2023-09-19T02:03:13;100207.00;;;15.88;100.00
4836;BME280;66719;51.226;6.902;2023-09-19T02:05:40;100199.09;;;15.88;100.00
4836;BME280;66719;51.226;6.902;2023-09-19T02:08:07;100199.94;;;15.89;100.00
4836;BME280;66719;51.226;6.902;2023-09-19T02:10:34;100205.19;;;15.90;100.00
4836;BME280;66719;51.226;6.902;2023-09-19T02:13:01;100214.81;;;15.91;100.00
4836;BME280;66719;51.226;6.902;2023-09-19T02:15:30;100220.47;;;15.83;100.00
4836;BME280;66719;51.226;6.902;2023-09-19T02:18:00;100217.16;;;15.78;100.00
4836;BME280;66719;51.226;6.902;2023-09-19T02:20:29;100212.75;;;15.79;100.00
4836;BME280;66719;51.226;6.902;2023-09-19T02:22:55;100228.75;;;15.76;100.00
4836;BME280;66719;51.226;6.902;2023-09-19T02:25:22;100218.09;;;15.77;100.00
4836;BME280;66719;51.226;6.902;2023-09-19T02:27:49;100221.59;;;15.78;100.00
4836;BME280;66719;51.226;6.902;2023-09-19T02:30:15;100226.88;;;15.78;100.00
4836;BME280;66719;51.226;6.902;2023-09-19T02:32:42;100236.75;;;15.74;100.00
4836;BME280;66719;51.226;6.902;2023-09-19T02:35:09;100232.44;;;15.72;100.00
4836;BME280;66719;51.226;6.902;2023-09-19T02:37:37;100236.94;;;15.70;100.00
4836;BME280;66719;51.226;6.902;2023-09-19T02:40:04;100234.47;;;15.67;100.00
4836;BME280;66719;51.226;6.902;2023-09-19T02:42:53;100249.53;;;15.65;100.00
4836;BME280;66719;51.226;6.902;2023-09-19T02:45:20;100244.28;;;15.63;100.00
4836;BME280;66719;51.226;6.902;2023-09-19T02:47:47;100240.75;;;15.64;100.00
4836;BME280;66719;51.226;6.902;2023-09-19T02:50:15;100249.56;;;15.63;100.00
4836;BME280;66719;51.226;6.902;2023-09-19T02:52:46;100244.50;;;15.59;100.00
4836;BME280;66719;51.226;6.902;2023-09-19T02:55:17;100252.56;;;15.55;100.00
4836;BME280;66719;51.226;6.902;2023-09-19T02:57:49;100249.97;;;15.54;100.00
4836;BME280;66719;51.226;6.902;2023-09-19T03:00:17;100247.34;;;15.54;100.00
4836;BME280;66719;51.226;6.902;2023-09-19T03:02:53;100254.28;;;15.57;100.00
4836;BME280;66719;51.226;6.902;2023-09-19T03:05:21;100252.56;;;15.55;100.00
4836;BME280;66719;51.226;6.902;2023-09-19T03:07:50;100256.09;;;15.54;100.00
4836;BME280;66719;51.226;6.902;2023-09-19T03:10:20;100264.94;;;15.53;100.00
4836;BME280;66719;51.226;6.902;2023-09-19T03:12:47;100267.75;;;15.50;100.00
4836;BME280;66719;51.226;6.902;2023-09-19T03:15:14;100265.09;;;15.50;100.00
4836;BME280;66719;51.226;6.902;2023-09-19T03:17:46;100272.09;;;15.51;100.00
4836;BME280;66719;51.226;6.902;2023-09-19T03:20:15;100266.31;;;15.43;100.00
4836;BME280;66719;51.226;6.902;2023-09-19T03:22:44;100261.03;;;15.43;100.00
4836;BME280;66719;51.226;6.902;2023-09-19T03:25:11;100263.81;;;15.40;100.00
4836;BME280;66719;51.226;6.902;2023-09-19T03:27:38;100265.47;;;15.43;100.00
4836;BME280;66719;51.226;6.902;2023-09-19T03:30:06;100261.25;;;15.39;100.00
4836;BME280;66719;51.226;6.902;2023-09-19T03:32:49;100266.72;;;15.34;100.00
4836;BME280;66719;51.226;6.902;2023-09-19T03:35:17;100259.75;;;15.33;100.00
4836;BME280;66719;51.226;6.902;2023-09-19T03:37:44;100260.53;;;15.35;100.00
4836;BME280;66719;51.226;6.902;2023-09-19T03:40:11;100265.94;;;15.32;100.00
4836;BME280;66719;51.226;6.902;2023-09-19T03:42:39;100258.03;;;15.32;100.00
4836;BME280;66719;51.226;6.902;2023-09-19T03:45:08;100254.47;;;15.33;100.00
4836;BME280;66719;51.226;6.902;2023-09-19T03:47:39;100252.09;;;15.27;100.00
4836;BME280;66719;51.226;6.902;2023-09-19T03:50:07;100259.09;;;15.28;100.00
4836;BME280;66719;51.226;6.902;2023-09-19T03:52:37;100256.59;;;15.25;100.00
4836;BME280;66719;51.226;6.902;2023-09-19T03:55:03;100255.75;;;15.24;100.00
4836;BME280;66719;51.226;6.902;2023-09-19T03:57:33;100256.53;;;15.26;100.00
4836;BME280;66719;51.226;6.902;2023-09-19T04:00:03;100260.94;;;15.26;100.00
4836;BME280;66719;51.226;6.902;2023-09-19T04:02:38;100257.44;;;15.25;100.00
4836;BME280;66719;51.226;6.902;2023-09-19T04:05:06;100258.31;;;15.26;100.00
4836;BME280;66719;51.226;6.902;2023-09-19T04:07:33;100254.97;;;15.22;100.00
4836;BME280;66719;51.226;6.902;2023-09-19T04:10:01;100255.09;;;15.19;100.00
4836;BME280;66719;51.226;6.902;2023-09-19T04:12:27;100257.69;;;15.21;100.00
4836;BME280;66719;51.226;6.902;2023-09-19T04:14:54;100259.47;;;15.20;100.00
4836;BME280;66719;51.226;6.902;2023-09-19T04:17:20;100254.19;;;15.20;100.00
4836;BME280;66719;51.226;6.902;2023-09-19T04:19:47;100257.69;;;15.21;100.00
4836;BME280;66719;51.226;6.902;2023-09-19T04:22:14;100259.59;;;15.17;100.00
4836;BME280;66719;51.226;6.902;2023-09-19T04:24:40;100258.56;;;15.20;100.00
4836;BME280;66719;51.226;6.902;2023-09-19T04:27:07;100254.22;;;15.19;100.00
4836;BME280;66719;51.226;6.902;2023-09-19T04:29:34;100256.00;;;15.18;100.00
4836;BME280;66719;51.226;6.902;2023-09-19T04:32:01;100265.84;;;15.15;100.00
4836;BME280;66719;51.226;6.902;2023-09-19T04:34:30;100265.78;;;15.16;100.00
4836;BME280;66719;51.226;6.902;2023-09-19T04:36:57;100268.44;;;15.16;100.00
4836;BME280;66719;51.226;6.902;2023-09-19T04:39:24;100273.91;;;15.12;100.00
4836;BME280;66719;51.226;6.902;2023-09-19T04:41:52;100280.09;;;15.11;100.00
4836;BME280;66719;51.226;6.902;2023-09-19T04:44:19;100266.06;;;15.10;100.00
4836;BME280;66719;51.226;6.902;2023-09-19T04:46:45;100270.47;;;15.10;100.00
4836;BME280;66719;51.226;6.902;2023-09-19T04:49:15;100264.50;;;15.06;100.00
4836;BME280;66719;51.226;6.902;2023-09-19T04:51:42;100267.06;;;15.08;100.00
4836;BME280;66719;51.226;6.902;2023-09-19T04:54:08;100273.34;;;15.05;100.00
4836;BME280;66719;51.226;6.902;2023-09-19T04:56:35;100265.41;;;15.05;100.00
4836;BME280;66719;51.226;6.902;2023-09-19T04:59:02;100271.63;;;15.04;100.00
4836;BME280;66719;51.226;6.902;2023-09-19T05:01:29;100284.72;;;15.06;100.00
4836;BME280;66719;51.226;6.902;2023-09-19T05:03:56;100275.97;;;15.05;100.00
4836;BME280;66719;51.226;6.902;2023-09-19T05:06:22;100273.41;;;15.04;100.00
4836;BME280;66719;51.226;6.902;2023-09-19T05:08:50;100277.75;;;15.05;100.00
4836;BME280;66719;51.226;6.902;2023-09-19T05:11:19;100284.13;;;14.99;100.00
4836;BME280;66719;51.226;6.902;2023-09-19T05:13:49;100288.41;;;15.02;100.00
4836;BME280;66719;51.226;6.902;2023-09-19T05:16:22;100295.34;;;15.04;100.00
4836;BME280;66719;51.226;6.902;2023-09-19T05:18:48;100301.56;;;15.03;100.00
4836;BME280;66719;51.226;6.902;2023-09-19T05:21:16;100309.47;;;15.03;100.00
4836;BME280;66719;51.226;6.902;2023-09-19T05:23:43;100307.69;;;15.04;100.00
4836;BME280;66719;51.226;6.902;2023-09-19T05:26:10;100315.59;;;15.04;100.00
4836;BME280;66719;51.226;6.902;2023-09-19T05:28:37;100318.00;;;15.08;100.00
4836;BME280;66719;51.226;6.902;2023-09-19T05:31:04;100323.13;;;15.11;100.00
4836;BME280;66719;51.226;6.902;2023-09-19T05:33:31;100328.38;;;15.13;100.00
4836;BME280;66719;51.226;6.902;2023-09-19T05:35:58;100331.94;;;15.12;100.00
4836;BME280;66719;51.226;6.902;2023-09-19T05:38:25;100338.91;;;15.13;100.00
4836;BME280;66719;51.226;6.902;2023-09-19T05:40:53;100339.56;;;15.18;100.00
4836;BME280;66719;51.226;6.902;2023-09-19T05:43:20;100345.75;;;15.17;100.00
4836;BME280;66719;51.226;6.902;2023-09-19T05:45:47;100356.16;;;15.20;100.00
4836;BME280;66719;51.226;6.902;2023-09-19T05:48:15;100353.53;;;15.20;100.00
4836;BME280;66719;51.226;6.902;2023-09-19T05:50:43;100354.47;;;15.19;100.00
4836;BME280;66719;51.226;6.902;2023-09-19T05:53:11;100353.53;;;15.20;100.00
4836;BME280;66719;51.226;6.902;2023-09-19T05:55:39;100363.19;;;15.21;100.00
4836;BME280;66719;51.226;6.902;2023-09-19T05:58:06;100365.00;;;15.19;100.00
4836;BME280;66719;51.226;6.902;2023-09-19T06:00:33;100372.91;;;15.19;100.00
4836;BME280;66719;51.226;6.902;2023-09-19T06:03:03;100374.63;;;15.20;100.00
4836;BME280;66719;51.226;6.902;2023-09-19T06:05:30;100379.00;;;15.21;100.00
4836;BME280;66719;51.226;6.902;2023-09-19T06:07:58;100379.78;;;15.23;100.00
4836;BME280;66719;51.226;6.902;2023-09-19T06:10:32;100393.69;;;15.26;100.00
4836;BME280;66719;51.226;6.902;2023-09-19T06:12:58;100391.91;;;15.27;100.00
4836;BME280;66719;51.226;6.902;2023-09-19T06:15:25;100396.25;;;15.28;100.00
4836;BME280;66719;51.226;6.902;2023-09-19T06:17:55;100394.44;;;15.30;100.00
4836;BME280;66719;51.226;6.902;2023-09-19T06:20:23;100385.59;;;15.31;100.00
4836;BME280;66719;51.226;6.902;2023-09-19T06:22:52;100383.75;;;15.33;100.00
4836;BME280;66719;51.226;6.902;2023-09-19T06:25:19;100384.66;;;15.32;100.00
4836;BME280;66719;51.226;6.902;2023-09-19T06:27:47;100375.81;;;15.33;100.00
4836;BME280;66719;51.226;6.902;2023-09-19T06:30:14;100376.75;;;15.32;100.00
4836;BME280;66719;51.226;6.902;2023-09-19T06:32:41;100380.19;;;15.34;100.00
4836;BME280;66719;51.226;6.902;2023-09-19T06:35:11;100368.69;;;15.35;100.00
4836;BME280;66719;51.226;6.902;2023-09-19T06:37:39;100375.66;;;15.38;100.00
4836;BME280;66719;51.226;6.902;2023-09-19T06:40:10;100376.53;;;15.37;100.00
4836;BME280;66719;51.226;6.902;2023-09-19T06:42:45;100380.03;;;15.37;100.00
4836;BME280;66719;51.226;6.902;2023-09-19T06:45:13;100380.00;;;15.39;100.00
4836;BME280;66719;51.226;6.902;2023-09-19T06:47:45;100376.34;;;15.41;100.00
4836;BME280;66719;51.226;6.902;2023-09-19T06:50:12;100379.78;;;15.43;100.00
4836;BME280;66719;51.226;6.902;2023-09-19T06:52:46;100388.44;;;15.47;100.00
4836;BME280;66719;51.226;6.902;2023-09-19T06:55:17;100389.31;;;15.46;100.00
4836;BME280;66719;51.226;6.902;2023-09-19T06:57:47;100384.94;;;15.46;100.00
4836;BME280;66719;51.226;6.902;2023-09-19T07:00:15;100383.25;;;15.44;100.00
4836;BME280;66719;51.226;6.902;2023-09-19T07:02:42;100393.81;;;15.44;100.00
4836;BME280;66719;51.226;6.902;2023-09-19T07:05:09;100392.97;;;15.43;100.00
4836;BME280;66719;51.226;6.902;2023-09-19T07:07:36;100392.09;;;15.43;100.00
4836;BME280;66719;51.226;6.902;2023-09-19T07:10:03;100398.25;;;15.43;100.00
4836;BME280;66719;51.226;6.902;2023-09-19T07:12:34;100393.75;;;15.45;100.00
4836;BME280;66719;51.226;6.902;2023-09-19T07:15:00;100391.06;;;15.47;100.00
4836;BME280;66719;51.226;6.902;2023-09-19T07:17:27;100393.63;;;15.48;100.00
4836;BME280;66719;51.226;6.902;2023-09-19T07:19:54;100400.63;;;15.49;100.00
4836;BME280;66719;51.226;6.902;2023-09-19T07:22:21;100397.84;;;15.52;100.00
4836;BME280;66719;51.226;6.902;2023-09-19T07:24:47;100394.06;;;15.58;100.00
4836;BME280;66719;51.226;6.902;2023-09-19T07:27:15;100402.72;;;15.62;100.00
4836;BME280;66719;51.226;6.902;2023-09-19T07:29:42;100404.53;;;15.61;100.00
4836;BME280;66719;51.226;6.902;2023-09-19T07:32:08;100404.56;;;15.60;100.00
4836;BME280;66719;51.226;6.902;2023-09-19T07:34:36;100401.88;;;15.61;100.00
4836;BME280;66719;51.226;6.902;2023-09-19T07:37:05;100405.25;;;15.65;100.00
4836;BME280;66719;51.226;6.902;2023-09-19T07:39:32;100411.25;;;15.68;100.00
4836;BME280;66719;51.226;6.902;2023-09-19T07:41:58;100410.31;;;15.69;100.00
4836;BME280;66719;51.226;6.902;2023-09-19T07:44:25;100417.22;;;15.72;100.00
4836;BME280;66719;51.226;6.902;2023-09-19T07:46:52;100417.31;;;15.70;100.00
4836;BME280;66719;51.226;6.902;2023-09-19T07:49:20;100411.94;;;15.72;100.00
4836;BME280;66719;51.226;6.902;2023-09-19T07:51:47;100414.47;;;15.75;100.00
4836;BME280;66719;51.226;6.902;2023-09-19T07:54:13;100417.03;;;15.76;100.00
4836;BME280;66719;51.226;6.902;2023-09-19T07:56:41;100422.25;;;15.78;100.00
4836;BME280;66719;51.226;6.902;2023-09-19T07:59:07;100417.13;;;15.75;100.00
4836;BME280;66719;51.226;6.902;2023-09-19T08:01:36;100417.13;;;15.75;100.00
4836;BME280;66719;51.226;6.902;2023-09-19T08:04:04;100411.69;;;15.78;100.00
4836;BME280;66719;51.226;6.902;2023-09-19T08:06:30;100420.38;;;15.80;100.00
4836;BME280;66719;51.226;6.902;2023-09-19T08:08:57;100421.19;;;15.82;100.00
4836;BME280;66719;51.226;6.902;2023-09-19T08:11:24;100430.84;;;15.83;100.00
4836;BME280;66719;51.226;6.902;2023-09-19T08:13:51;100430.69;;;15.86;100.00
4836;BME280;66719;51.226;6.902;2023-09-19T08:16:18;100435.81;;;15.89;100.00
4836;BME280;66719;51.226;6.902;2023-09-19T08:18:48;100436.63;;;15.91;100.00
4836;BME280;66719;51.226;6.902;2023-09-19T08:21:19;100436.47;;;15.94;100.00
4836;BME280;66719;51.226;6.902;2023-09-19T08:23:45;100427.47;;;15.98;100.00
4836;BME280;66719;51.226;6.902;2023-09-19T08:26:12;100430.78;;;16.03;100.00
4836;BME280;66719;51.226;6.902;2023-09-19T08:28:39;100440.34;;;16.06;100.00
4836;BME280;66719;51.226;6.902;2023-09-19T08:31:08;100440.13;;;16.10;100.00
4836;BME280;66719;51.226;6.902;2023-09-19T08:33:37;100441.78;;;16.13;100.00
4836;BME280;66719;51.226;6.902;2023-09-19T08:36:06;100444.28;;;16.16;100.00
4836;BME280;66719;51.226;6.902;2023-09-19T08:38:35;100446.84;;;16.18;100.00
4836;BME280;66719;51.226;6.902;2023-09-19T08:41:06;100446.69;;;16.21;100.00
4836;BME280;66719;51.226;6.902;2023-09-19T08:43:34;100443.91;;;16.24;100.00
4836;BME280;66719;51.226;6.902;2023-09-19T08:46:13;100450.97;;;16.23;100.00
4836;BME280;66719;51.226;6.902;2023-09-19T08:48:48;100441.25;;;16.24;100.00
4836;BME280;66719;51.226;6.902;2023-09-19T08:51:32;100445.56;;;16.26;100.00
4836;BME280;66719;51.226;6.902;2023-09-19T08:54:06;100444.47;;;16.30;100.00
4836;BME280;66719;51.226;6.902;2023-09-19T08:56:33;100450.50;;;16.34;100.00
4836;BME280;66719;51.226;6.902;2023-09-19T08:59:03;100442.84;;;16.28;100.00
4836;BME280;66719;51.226;6.902;2023-09-19T09:01:31;100448.84;;;16.31;100.00
4836;BME280;66719;51.226;6.902;2023-09-19T09:03:59;100437.22;;;16.35;100.00
4836;BME280;66719;51.226;6.902;2023-09-19T09:06:27;100441.34;;;16.41;100.00
4836;BME280;66719;51.226;6.902;2023-09-19T09:08:59;100452.75;;;16.42;100.00
4836;BME280;66719;51.226;6.902;2023-09-19T09:11:26;100444.56;;;16.48;100.00
4836;BME280;66719;51.226;6.902;2023-09-19T09:13:54;100447.94;;;16.51;100.00
4836;BME280;66719;51.226;6.902;2023-09-19T09:16:21;100448.34;;;16.61;100.00
4836;BME280;66719;51.226;6.902;2023-09-19T09:18:53;100448.19;;;16.64;100.00
4836;BME280;66719;51.226;6.902;2023-09-19T09:21:21;100435.81;;;16.64;100.00
4836;BME280;66719;51.226;6.902;2023-09-19T09:23:49;100435.63;;;16.69;100.00
4836;BME280;66719;51.226;6.902;2023-09-19T09:26:41;100439.84;;;16.73;100.00
4836;BME280;66719;51.226;6.902;2023-09-19T09:29:07;100435.28;;;16.77;100.00
4836;BME280;66719;51.226;6.902;2023-09-19T09:31:34;100437.84;;;16.78;100.00
4836;BME280;66719;51.226;6.902;2023-09-19T09:34:01;100438.59;;;16.80;100.00
4836;BME280;66719;51.226;6.902;2023-09-19T09:36:36;100439.25;;;16.85;100.00
4836;BME280;66719;51.226;6.902;2023-09-19T09:39:03;100428.22;;;16.94;100.00
4836;BME280;66719;51.226;6.902;2023-09-19T09:41:43;100424.38;;;17.00;100.00
4836;BME280;66719;51.226;6.902;2023-09-19T09:44:14;100427.59;;;17.07;100.00
4836;BME280;66719;51.226;6.902;2023-09-19T09:46:45;100428.44;;;17.07;100.00
4836;BME280;66719;51.226;6.902;2023-09-19T09:49:26;100424.69;;;17.11;100.00
4836;BME280;66719;51.226;6.902;2023-09-19T09:52:04;100441.38;;;17.13;100.00
4836;BME280;66719;51.226;6.902;2023-09-19T09:54:37;100435.16;;;17.14;100.00
4836;BME280;66719;51.226;6.902;2023-09-19T09:57:09;100434.69;;;17.23;100.00
4836;BME280;66719;51.226;6.902;2023-09-19T09:59:56;100425.81;;;17.24;100.00
4836;BME280;66719;51.226;6.902;2023-09-19T10:02:45;100436.38;;;17.24;100.00
4836;BME280;66719;51.226;6.902;2023-09-19T10:05:20;100434.75;;;17.22;100.00
4836;BME280;66719;51.226;6.902;2023-09-19T10:07:48;100426.81;;;17.22;100.00
4836;BME280;66719;51.226;6.902;2023-09-19T10:10:39;100432.03;;;17.23;100.00
4836;BME280;66719;51.226;6.902;2023-09-19T10:13:11;100429.22;;;17.27;100.00
4836;BME280;66719;51.226;6.902;2023-09-19T10:15:49;100426.44;;;17.30;100.00
4836;BME280;66719;51.226;6.902;2023-09-19T10:18:23;100426.75;;;17.23;100.00
4836;BME280;66719;51.226;6.902;2023-09-19T10:20:49;100420.91;;;17.17;100.00
4836;BME280;66719;51.226;6.902;2023-09-19T10:23:18;100421.16;;;17.12;100.00
4836;BME280;66719;51.226;6.902;2023-09-19T10:25:53;100416.84;;;17.10;100.00
4836;BME280;66719;51.226;6.902;2023-09-19T10:28:21;100414.44;;;17.05;100.00
4836;BME280;66719;51.226;6.902;2023-09-19T10:30:52;100422.31;;;17.07;100.00
4836;BME280;66719;51.226;6.902;2023-09-19T10:33:21;100406.81;;;17.16;100.00
4836;BME280;66719;51.226;6.902;2023-09-19T10:35:50;100403.31;;;17.16;100.00
4836;BME280;66719;51.226;6.902;2023-09-19T10:38:24;100397.63;;;17.23;100.00
4836;BME280;66719;51.226;6.902;2023-09-19T10:40:53;100391.69;;;17.36;100.00
4836;BME280;66719;51.226;6.902;2023-09-19T10:43:22;100400.44;;;17.38;100.00
4836;BME280;66719;51.226;6.902;2023-09-19T10:45:52;100406.50;;;17.40;100.00
4836;BME280;66719;51.226;6.902;2023-09-19T10:48:20;100409.75;;;17.45;100.00
4836;BME280;66719;51.226;6.902;2023-09-19T10:51:01;100411.44;;;17.46;100.00
4836;BME280;66719;51.226;6.902;2023-09-19T10:56:09;100403.84;;;17.40;100.00
4836;BME280;66719;51.226;6.902;2023-09-19T10:58:44;100403.84;;;17.40;100.00
4836;BME280;66719;51.226;6.902;2023-09-19T11:01:11;100408.50;;;17.52;100.00
4836;BME280;66719;51.226;6.902;2023-09-19T11:03:39;100407.22;;;17.59;100.00
4836;BME280;66719;51.226;6.902;2023-09-19T11:06:14;100404.28;;;17.65;100.00
4836;BME280;66719;51.226;6.902;2023-09-19T11:08:57;100382.91;;;17.68;100.00
4836;BME280;66719;51.226;6.902;2023-09-19T11:11:50;100408.16;;;17.75;100.00
4836;BME280;66719;51.226;6.902;2023-09-19T11:30:46;100410.00;;;17.91;100.00
4836;BME280;66719;51.226;6.902;2023-09-19T11:33:21;100419.75;;;17.90;100.00
4836;BME280;66719;51.226;6.902;2023-09-19T11:36:10;100418.28;;;17.85;100.00
4836;BME280;66719;51.226;6.902;2023-09-19T11:46:27;100396.16;;;18.01;100.00
4836;BME280;66719;51.226;6.902;2023-09-19T11:49:07;100420.69;;;18.05;100.00
4836;BME280;66719;51.226;6.902;2023-09-19T11:51:43;100409.59;;;17.98;100.00
4836;BME280;66719;51.226;6.902;2023-09-19T11:54:11;100408.88;;;17.95;100.00
4836;BME280;66719;51.226;6.902;2023-09-19T11:56:45;100397.03;;;18.02;100.00
4836;BME280;66719;51.226;6.902;2023-09-19T11:59:29;100407.34;;;18.06;100.00
4836;BME280;66719;51.226;6.902;2023-09-19T12:02:06;100416.78;;;18.12;100.00
4836;BME280;66719;51.226;6.902;2023-09-19T12:04:40;100413.09;;;18.15;98.90
4836;BME280;66719;51.226;6.902;2023-09-19T12:07:11;100410.28;;;18.18;100.00
4836;BME280;66719;51.226;6.902;2023-09-19T12:09:49;100396.69;;;18.24;100.00
4836;BME280;66719;51.226;6.902;2023-09-19T12:14:50;100404.19;;;18.31;100.00
4836;BME280;66719;51.226;6.902;2023-09-19T12:17:17;100372.38;;;18.31;95.50
4836;BME280;66719;51.226;6.902;2023-09-19T12:19:51;100374.72;;;18.38;97.82
4836;BME280;66719;51.226;6.902;2023-09-19T12:22:19;100368.25;;;18.57;99.13
4836;BME280;66719;51.226;6.902;2023-09-19T12:24:47;100375.97;;;18.78;93.37
4836;BME280;66719;51.226;6.902;2023-09-19T12:27:15;100383.28;;;18.88;93.40
4836;BME280;66719;51.226;6.902;2023-09-19T12:29:46;100367.19;;;18.91;92.55
4836;BME280;66719;51.226;6.902;2023-09-19T12:32:15;100372.72;;;19.03;92.00
4836;BME280;66719;51.226;6.902;2023-09-19T12:34:52;100363.13;;;19.30;94.70
4836;BME280;66719;51.226;6.902;2023-09-19T12:37:21;100376.91;;;19.65;90.91
4836;BME280;66719;51.226;6.902;2023-09-19T12:39:50;100371.88;;;19.75;84.87
4836;BME280;66719;51.226;6.902;2023-09-19T12:42:20;100363.13;;;19.87;85.14
4836;BME280;66719;51.226;6.902;2023-09-19T12:44:49;100358.88;;;19.99;82.79
4836;BME280;66719;51.226;6.902;2023-09-19T12:47:22;100359.56;;;20.15;84.49
4836;BME280;66719;51.226;6.902;2023-09-19T12:50:18;100354.00;;;20.32;82.10
4836;BME280;66719;51.226;6.902;2023-09-19T12:52:52;100346.47;;;20.53;83.04
4836;BME280;66719;51.226;6.902;2023-09-19T12:55:30;100333.56;;;20.47;79.54
4836;BME280;66719;51.226;6.902;2023-09-19T12:58:07;100350.72;;;20.56;81.44
4836;BME280;66719;51.226;6.902;2023-09-19T13:00:40;100343.59;;;20.56;79.87
4836;BME280;66719;51.226;6.902;2023-09-19T13:05:54;100332.50;;;20.77;82.89
4836;BME280;66719;51.226;6.902;2023-09-19T13:08:27;100335.06;;;20.91;83.65
4836;BME280;66719;51.226;6.902;2023-09-19T13:11:03;100329.97;;;20.88;80.84
4836;BME280;66719;51.226;6.902;2023-09-19T13:13:33;100347.81;;;20.73;79.43
4836;BME280;66719;51.226;6.902;2023-09-19T13:16:02;100344.66;;;20.54;78.86
4836;BME280;66719;51.226;6.902;2023-09-19T13:18:55;100342.72;;;20.29;81.69
4836;BME280;66719;51.226;6.902;2023-09-19T13:21:34;100347.78;;;20.19;83.51
4836;BME280;66719;51.226;6.902;2023-09-19T13:24:22;100353.03;;;20.07;84.47
4836;BME280;66719;51.226;6.902;2023-09-19T13:26:49;100360.84;;;19.95;85.31
4836;BME280;66719;51.226;6.902;2023-09-19T13:29:16;100343.97;;;19.82;83.50
4836;BME280;66719;51.226;6.902;2023-09-19T13:31:51;100347.03;;;19.76;85.28
4836;BME280;66719;51.226;6.902;2023-09-19T13:34:21;100359.44;;;19.75;83.93
4836;BME280;66719;51.226;6.902;2023-09-19T13:36:49;100346.63;;;19.68;83.50
4836;BME280;66719;51.226;6.902;2023-09-19T13:39:16;100351.47;;;19.61;83.43
4836;BME280;66719;51.226;6.902;2023-09-19T13:41:47;100360.66;;;19.56;84.85
4836;BME280;66719;51.226;6.902;2023-09-19T13:44:14;100347.56;;;19.53;87.70
4836;BME280;66719;51.226;6.902;2023-09-19T13:46:42;100348.72;;;19.48;86.65
4836;BME280;66719;51.226;6.902;2023-09-19T13:49:12;100343.50;;;19.47;87.25
4836;BME280;66719;51.226;6.902;2023-09-19T13:51:39;100348.31;;;19.40;88.94